Time;durP1;ratioP1;P1;durP2;ratioP2;P2;SDS_P1;SDS_P2;PMS_P1;PMS_P2;Temp;Humidity;BMP_temperature;BMP_pressure;BME280_temperature;BME280_humidity;BME280_pressure;Samples;Min_cycle;Max_cycle;Signal;HPM_P1;HPM_P2
2023/03/29 00:00:04;;;;;;;4.18;1.52;;;;;;;6.19;100.00;101656.31;5203080;28;20056;-82
2023/03/29 00:02:35;;;;;;;6.38;2.00;;;;;;;6.20;100.00;101650.84;5203644;28;20067;-82
2023/03/29 00:05:06;;;;;;;5.05;1.73;;;;;;;6.26;100.00;101643.34;5203791;28;20022;-82
2023/03/29 00:07:37;;;;;;;3.13;1.80;;;;;;;6.30;100.00;101647.47;5206012;28;20025;-82
2023/03/29 00:10:09;;;;;;;6.38;1.98;;;;;;;6.31;100.00;101641.19;5194275;28;20490;-82
2023/03/29 00:12:40;;;;;;;4.72;1.70;;;;;;;6.35;100.00;101638.16;5207166;28;20021;-82
2023/03/29 00:15:11;;;;;;;6.00;1.98;;;;;;;6.35;100.00;101632.81;5208190;28;20032;-81
2023/03/29 00:17:42;;;;;;;4.18;1.63;;;;;;;6.36;100.00;101626.53;5207138;28;20028;-81
2023/03/29 00:20:13;;;;;;;5.15;1.60;;;;;;;6.37;100.00;101620.22;5210910;28;20017;-81
2023/03/29 00:22:45;;;;;;;5.82;1.80;;;;;;;6.38;100.00;101621.09;5194085;28;20451;-81
2023/03/29 00:25:16;;;;;;;6.50;1.95;;;;;;;6.36;100.00;101610.53;5198591;28;20034;-81
2023/03/29 00:27:46;;;;;;;8.82;2.03;;;;;;;6.40;100.00;101620.00;5207083;28;20033;-82
2023/03/29 00:30:17;;;;;;;4.60;2.10;;;;;;;6.40;100.00;101612.00;5207263;28;20025;-82
2023/03/29 00:32:47;;;;;;;7.70;1.80;;;;;;;6.39;100.00;101607.63;5208390;28;20021;-82
2023/03/29 00:35:18;;;;;;;4.72;2.22;;;;;;;6.40;100.00;101606.66;5208027;28;20022;-82
2023/03/29 00:37:51;;;;;;;4.38;1.75;;;;;;;6.42;100.00;101604.72;5207733;28;20037;-82
2023/03/29 00:40:22;;;;;;;5.85;1.73;;;;;;;6.45;100.00;101607.16;5207880;28;20071;-82
2023/03/29 00:42:55;;;;;;;5.13;1.70;;;;;;;6.46;100.00;101605.31;5207604;28;20112;-84
2023/03/29 00:45:29;;;;;;;4.05;1.80;;;;;;;6.47;100.00;101599.88;5208003;28;20068;-82
2023/03/29 00:48:03;;;;;;;6.72;2.10;;;;;;;6.52;100.00;101604.84;5208325;28;20155;-82
2023/03/29 00:50:40;;;;;;;3.37;1.87;;;;;;;6.54;100.00;101596.75;5207781;28;20100;-82
2023/03/29 00:53:29;;;;;;;5.90;1.90;;;;;;;6.56;100.00;101600.13;5207877;28;20422;-82
2023/03/29 00:56:23;;;;;;;4.30;1.95;;;;;;;6.58;100.00;101595.53;5208182;28;20506;-82
2023/03/29 00:59:14;;;;;;;9.00;2.13;;;;;;;6.57;100.00;101592.00;5208105;28;20036;-82
2023/03/29 01:01:53;;;;;;;8.13;1.90;;;;;;;6.57;100.00;101591.16;5207019;28;20030;-82
2023/03/29 01:04:40;;;;;;;5.68;1.90;;;;;;;6.59;100.00;101583.91;5208214;28;20052;-82
2023/03/29 01:07:49;;;;;;;8.27;2.17;;;;;;;6.63;100.00;101580.00;5207646;28;20029;-82
2023/03/29 01:10:37;;;;;;;6.35;2.10;;;;;;;6.63;100.00;101582.69;5207377;28;20111;-82
2023/03/29 01:13:16;;;;;;;11.15;2.13;;;;;;;6.63;100.00;101582.69;5203358;28;20480;-82
2023/03/29 01:15:47;;;;;;;10.40;2.08;;;;;;;6.64;100.00;101587.03;5207962;28;20107;-82
2023/03/29 01:18:20;;;;;;;5.53;2.22;;;;;;;6.65;100.00;101589.56;5206469;28;20056;-82
2023/03/29 01:21:03;;;;;;;6.90;1.90;;;;;;;6.63;100.00;101580.88;5207309;28;20032;-82
2023/03/29 01:23:57;;;;;;;7.47;1.95;;;;;;;6.65;100.00;101584.25;5208001;28;20056;-82
2023/03/29 01:26:47;;;;;;;9.32;2.60;;;;;;;6.62;100.00;101583.63;5197517;28;20029;-82
2023/03/29 01:29:52;;;;;;;7.72;3.00;;;;;;;6.63;100.00;101570.19;5207608;28;20040;-82
2023/03/29 01:32:50;;;;;;;5.50;2.10;;;;;;;6.64;100.00;101571.03;5207056;28;20037;-82
2023/03/29 01:35:31;;;;;;;5.40;2.20;;;;;;;6.64;100.00;101569.22;5207327;28;20108;-82
2023/03/29 01:38:24;;;;;;;6.88;2.53;;;;;;;6.60;100.00;101557.09;5207353;28;20040;-82
2023/03/29 01:40:54;;;;;;;6.70;3.60;;;;;;;6.59;100.00;101557.22;5207259;28;20029;-82
2023/03/29 01:43:35;;;;;;;7.78;2.38;;;;;;;6.57;100.00;101546.66;5207447;28;20048;-82
2023/03/29 01:46:13;;;;;;;4.65;2.10;;;;;;;6.56;100.00;101544.13;5206860;28;20052;-82
2023/03/29 01:49:18;;;;;;;4.72;2.17;;;;;;;6.53;100.00;101537.25;5206416;28;20047;-82
2023/03/29 01:51:56;;;;;;;8.27;2.97;;;;;;;6.51;100.00;101539.16;5206162;28;20037;-82
2023/03/29 01:54:33;;;;;;;6.72;2.35;;;;;;;6.49;100.00;101525.97;5209794;28;20026;-82
2023/03/29 01:57:09;;;;;;;5.18;2.20;;;;;;;6.47;100.00;101535.91;5209443;28;20083;-82
2023/03/29 01:59:43;;;;;;;6.38;2.30;;;;;;;6.47;100.00;101521.72;5209573;28;20112;-82
2023/03/29 02:02:17;;;;;;;8.97;2.70;;;;;;;6.44;100.00;101525.50;5209541;28;20025;-82
2023/03/29 02:04:52;;;;;;;3.83;2.40;;;;;;;6.42;100.00;101522.09;5209116;28;20108;-82
2023/03/29 02:07:30;;;;;;;6.93;2.38;;;;;;;6.39;100.00;101519.69;5208943;28;20037;-82
2023/03/29 02:10:02;;;;;;;7.03;2.50;;;;;;;6.37;100.00;101529.59;5208826;28;20584;-82
2023/03/29 02:12:32;;;;;;;9.13;2.35;;;;;;;6.34;100.00;101513.03;5204290;28;20029;-82
2023/03/29 02:15:06;;;;;;;10.18;2.30;;;;;;;6.30;100.00;101516.91;5210306;28;20029;-82
2023/03/29 02:17:37;;;;;;;7.53;2.38;;;;;;;6.28;100.00;101506.38;5209087;28;20032;-82
2023/03/29 02:20:26;;;;;;;4.97;2.03;;;;;;;6.28;100.00;101513.53;5209099;28;20026;-82
2023/03/29 02:23:05;;;;;;;6.97;2.83;;;;;;;6.26;100.00;101524.28;5195781;28;20025;-82
2023/03/29 02:25:36;;;;;;;7.80;2.17;;;;;;;6.22;100.00;101513.03;5199085;28;20038;-82
2023/03/29 02:28:08;;;;;;;11.02;2.75;;;;;;;6.20;100.00;101514.97;5208172;28;20025;-82
2023/03/29 02:31:17;;;;;;;4.57;2.50;;;;;;;6.22;100.00;101507.72;5207788;28;20029;-82
2023/03/29 02:33:57;;;;;;;5.45;2.28;;;;;;;6.24;100.00;101512.91;5208965;28;20028;-82
2023/03/29 02:36:37;;;;;;;9.15;2.78;;;;;;;6.23;100.00;101505.91;5208597;28;20029;-82
2023/03/29 02:39:12;;;;;;;5.85;2.53;;;;;;;6.25;100.00;101508.44;5209039;28;20367;-82
2023/03/29 02:41:46;;;;;;;4.75;2.50;;;;;;;6.28;100.00;101510.88;5207815;28;20095;-82
2023/03/29 02:44:21;;;;;;;4.32;2.45;;;;;;;6.32;100.00;101502.47;5208625;28;20033;-82
2023/03/29 02:46:56;;;;;;;4.57;2.28;;;;;;;6.37;100.00;101499.44;5207875;28;20025;-82
2023/03/29 02:49:27;;;;;;;5.00;2.03;;;;;;;6.42;100.00;101505.25;5206666;28;20115;-82
2023/03/29 02:52:06;;;;;;;10.48;2.60;;;;;;;6.43;100.00;101502.47;5205534;28;20072;-82
2023/03/29 02:54:41;;;;;;;8.05;2.70;;;;;;;6.43;100.00;101497.16;5206470;28;20114;-82
2023/03/29 02:57:12;;;;;;;9.45;2.65;;;;;;;6.42;100.00;101495.44;5206086;28;20029;-82
2023/03/29 02:59:43;;;;;;;6.18;2.55;;;;;;;6.44;100.00;101498.00;5205826;28;20017;-82
2023/03/29 03:02:16;;;;;;;7.55;2.53;;;;;;;6.43;100.00;101497.16;5205840;28;20045;-82
2023/03/29 03:04:46;;;;;;;9.30;2.75;;;;;;;6.44;100.00;101498.84;5205623;28;20040;-82
2023/03/29 03:07:18;;;;;;;5.93;2.53;;;;;;;6.47;100.00;101503.91;5205563;28;20394;-82
2023/03/29 03:09:49;;;;;;;9.15;2.50;;;;;;;6.52;100.00;101494.69;5205872;28;20442;-82
2023/03/29 03:12:19;;;;;;;9.13;3.17;;;;;;;6.58;100.00;101488.88;5205788;28;20025;-82
2023/03/29 03:14:50;;;;;;;10.95;2.90;;;;;;;6.66;100.00;101495.28;5205605;28;20032;-82
2023/03/29 03:17:21;;;;;;;6.72;2.47;;;;;;;6.75;100.00;101491.00;5204949;28;20088;-82
2023/03/29 03:19:52;;;;;;;8.88;3.22;;;;;;;6.87;100.00;101484.66;5205772;28;20018;-82
2023/03/29 03:22:23;;;;;;;9.10;2.90;;;;;;;6.99;100.00;101485.47;5205624;28;20033;-82
2023/03/29 03:24:54;;;;;;;8.30;2.60;;;;;;;7.09;100.00;101475.75;5199320;28;20057;-82
2023/03/29 03:27:25;;;;;;;11.70;2.65;;;;;;;7.18;100.00;101474.97;5201725;28;20025;-82
2023/03/29 03:29:56;;;;;;;9.05;3.42;;;;;;;7.24;100.00;101465.59;5205097;28;20025;-82
2023/03/29 03:32:27;;;;;;;5.95;3.00;;;;;;;7.26;100.00;101463.63;5205104;28;20165;-82
2023/03/29 03:34:58;;;;;;;9.15;3.22;;;;;;;7.38;100.00;101469.75;5205464;28;20025;-82
2023/03/29 03:37:29;;;;;;;8.88;3.33;;;;;;;7.44;100.00;101464.75;5204754;28;20509;-82
2023/03/29 03:39:59;;;;;;;6.28;2.58;;;;;;;7.48;100.00;101465.31;5205589;28;20017;-82
2023/03/29 03:42:29;;;;;;;11.05;3.25;;;;;;;7.52;100.00;101464.91;5209600;28;20025;-82
2023/03/29 03:45:00;;;;;;;13.20;4.13;;;;;;;7.57;100.00;101461.03;5207082;28;20029;-82
2023/03/29 03:47:31;;;;;;;7.07;2.95;;;;;;;7.61;100.00;101463.28;5206597;28;20108;-82
2023/03/29 03:50:02;;;;;;;9.35;3.40;;;;;;;7.64;100.00;101462.19;5206541;28;20561;-82
2023/03/29 03:52:33;;;;;;;7.93;3.40;;;;;;;7.67;100.00;101460.09;5206796;28;20383;-82
2023/03/29 03:55:04;;;;;;;10.00;3.28;;;;;;;7.73;100.00;101462.25;5207398;28;20022;-82
2023/03/29 03:57:46;;;;;;;12.48;3.38;;;;;;;7.76;100.00;101455.78;5206922;28;20025;-82
2023/03/29 04:00:19;;;;;;;8.25;3.22;;;;;;;7.79;100.00;101456.38;5208451;28;20033;-82
2023/03/29 04:02:50;;;;;;;9.75;3.53;;;;;;;7.86;100.00;101462.03;5207314;28;20547;-82
2023/03/29 04:05:20;;;;;;;11.60;3.65;;;;;;;7.87;100.00;101453.03;5209096;28;20026;-82
2023/03/29 04:07:51;;;;;;;10.07;3.80;;;;;;;7.90;100.00;101452.75;5206378;28;20070;-82
2023/03/29 04:10:22;;;;;;;9.05;3.20;;;;;;;7.91;100.00;101451.78;5206586;28;20478;-82
2023/03/29 04:12:52;;;;;;;9.93;3.60;;;;;;;7.94;100.00;101456.88;5202213;28;20553;-82
2023/03/29 04:15:23;;;;;;;14.38;4.82;;;;;;;8.01;100.00;101455.34;5206465;28;20508;-82
2023/03/29 04:17:55;;;;;;;10.60;3.65;;;;;;;8.02;100.00;101456.16;5205615;28;20029;-82
2023/03/29 04:20:27;;;;;;;10.13;4.45;;;;;;;8.05;100.00;101448.75;5206596;28;20583;-82
2023/03/29 04:22:57;;;;;;;13.98;3.45;;;;;;;8.06;100.00;101449.59;5206470;28;20025;-82
2023/03/29 04:25:28;;;;;;;10.00;3.15;;;;;;;8.08;100.00;101452.94;5196972;28;20047;-82
2023/03/29 04:27:59;;;;;;;10.07;3.17;;;;;;;8.08;100.00;101447.59;5205892;28;20028;-82
2023/03/29 04:30:29;;;;;;;9.63;3.60;;;;;;;8.09;100.00;101449.31;5206423;28;20482;-82
2023/03/29 04:33:00;;;;;;;7.65;3.17;;;;;;;8.07;100.00;101440.59;5206615;28;20036;-82
2023/03/29 04:35:31;;;;;;;9.77;3.00;;;;;;;8.09;100.00;101443.13;5206737;28;20100;-81
2023/03/29 04:38:03;;;;;;;8.55;3.70;;;;;;;8.11;100.00;101442.00;5206453;28;20056;-82
2023/03/29 04:40:33;;;;;;;13.88;3.55;;;;;;;8.11;100.00;101449.19;5206176;28;20389;-82
2023/03/29 04:43:04;;;;;;;11.45;3.85;;;;;;;8.12;100.00;101445.53;5207295;28;20110;-82
2023/03/29 04:45:35;;;;;;;9.55;3.33;;;;;;;8.14;100.00;101443.56;5207037;28;20032;-82
2023/03/29 04:48:06;;;;;;;9.15;3.67;;;;;;;8.16;100.00;101446.94;5206328;28;20448;-82
2023/03/29 04:50:36;;;;;;;9.88;3.58;;;;;;;8.21;100.00;101450.06;5206893;28;20125;-82
2023/03/29 04:53:07;;;;;;;11.02;5.32;;;;;;;8.22;100.00;101443.72;5206108;28;20040;-83
2023/03/29 04:55:37;;;;;;;13.20;3.67;;;;;;;8.27;100.00;101449.50;5207595;28;20033;-82
2023/03/29 04:58:08;;;;;;;9.90;3.75;;;;;;;8.28;100.00;101446.72;5206294;28;20067;-83
2023/03/29 05:00:39;;;;;;;10.88;3.63;;;;;;;8.29;100.00;101452.91;5206916;28;20025;-81
2023/03/29 05:03:12;;;;;;;12.63;3.55;;;;;;;8.29;100.00;101448.41;5207158;28;20048;-81
2023/03/29 05:05:42;;;;;;;8.50;3.65;;;;;;;8.30;100.00;101455.44;5206757;28;20033;-80
2023/03/29 05:08:13;;;;;;;9.65;3.30;;;;;;;8.32;100.00;101450.78;5206458;28;20021;-78
2023/03/29 05:10:45;;;;;;;7.25;3.20;;;;;;;8.38;100.00;101448.56;5206388;28;20501;-78
2023/03/29 05:13:15;;;;;;;14.15;4.13;;;;;;;8.38;100.00;101451.25;5206463;28;20040;-78
2023/03/29 05:15:46;;;;;;;16.02;4.07;;;;;;;8.39;100.00;101445.78;5206153;28;20494;-78
2023/03/29 05:18:16;;;;;;;9.50;3.53;;;;;;;8.41;100.00;101456.34;5206076;28;20037;-78
2023/03/29 05:20:50;;;;;;;10.50;4.10;;;;;;;8.38;100.00;101451.25;5205968;28;20018;-79
2023/03/29 05:23:21;;;;;;;12.10;3.95;;;;;;;8.39;100.00;101448.47;5199384;28;20107;-79
2023/03/29 05:25:52;;;;;;;9.48;3.13;;;;;;;8.39;100.00;101456.47;5199093;28;20109;-78
2023/03/29 05:28:22;;;;;;;12.35;3.85;;;;;;;8.38;100.00;101453.91;5208058;28;20037;-78
2023/03/29 05:31:08;;;;;;;11.23;3.58;;;;;;;8.38;100.00;101453.91;5208105;28;20028;-78
2023/03/29 05:33:39;;;;;;;8.98;4.03;;;;;;;8.38;100.00;101461.94;5208530;28;20036;-79
2023/03/29 05:36:12;;;;;;;8.48;3.05;;;;;;;8.39;100.00;101459.16;5209406;28;20029;-78
2023/03/29 05:38:45;;;;;;;13.13;3.45;;;;;;;8.40;100.00;101454.66;5207643;28;20029;-80
2023/03/29 05:41:16;;;;;;;13.63;4.10;;;;;;;8.41;100.00;101451.81;5225355;28;20021;-79
2023/03/29 05:43:47;;;;;;;10.27;3.78;;;;;;;8.44;100.00;101456.91;5209551;28;20052;-80
2023/03/29 05:46:17;;;;;;;8.75;3.67;;;;;;;8.45;100.00;101453.25;5209659;28;20132;-81
2023/03/29 05:48:48;;;;;;;10.07;3.50;;;;;;;8.47;100.00;101450.44;5209201;28;20041;-82
2023/03/29 05:51:22;;;;;;;11.00;4.05;;;;;;;8.49;100.00;101452.00;5207480;28;20038;-82
2023/03/29 05:53:53;;;;;;;11.80;3.88;;;;;;;8.51;100.00;101439.31;5206214;28;20440;-81
2023/03/29 05:56:24;;;;;;;9.85;4.25;;;;;;;8.56;100.00;101438.91;5205267;28;20025;-79
2023/03/29 05:58:57;;;;;;;11.55;3.47;;;;;;;8.61;100.00;101438.50;5205464;28;20037;-79
2023/03/29 06:01:29;;;;;;;12.10;3.80;;;;;;;8.63;100.00;101447.22;5205352;28;20509;-79
2023/03/29 06:04:00;;;;;;;12.93;3.97;;;;;;;8.66;100.00;101449.63;5205222;28;20060;-79
2023/03/29 06:06:31;;;;;;;10.38;4.07;;;;;;;8.69;100.00;101449.34;5204746;28;20052;-79
2023/03/29 06:09:01;;;;;;;9.73;3.83;;;;;;;8.71;100.00;101442.88;5205061;28;20419;-78
2023/03/29 06:11:33;;;;;;;15.13;5.05;;;;;;;8.73;100.00;101445.38;5204865;28;20025;-80
2023/03/29 06:14:04;;;;;;;10.55;4.05;;;;;;;8.76;100.00;101437.94;5201213;28;20453;-79
2023/03/29 06:16:35;;;;;;;13.73;4.40;;;;;;;8.80;100.00;101444.72;5204479;28;20035;-79
2023/03/29 06:19:06;;;;;;;12.20;4.10;;;;;;;8.83;100.00;101424.84;5205057;28;20025;-79
2023/03/29 06:21:36;;;;;;;12.02;4.15;;;;;;;8.85;100.00;101436.25;5204759;28;20431;-79
2023/03/29 06:24:07;;;;;;;15.27;4.60;;;;;;;8.88;100.00;101438.63;5204888;28;20026;-79
2023/03/29 06:26:38;;;;;;;11.02;3.85;;;;;;;8.90;100.00;101442.03;5202661;28;20385;-78
2023/03/29 06:29:09;;;;;;;12.60;4.35;;;;;;;8.92;100.00;101450.75;5204694;28;20026;-78
2023/03/29 06:31:39;;;;;;;15.45;4.03;;;;;;;8.96;100.00;101445.97;5204599;28;20053;-78
2023/03/29 06:34:10;;;;;;;9.65;3.95;;;;;;;8.97;100.00;101442.31;5204406;28;20101;-78
2023/03/29 06:36:41;;;;;;;9.55;4.15;;;;;;;8.98;100.00;101447.50;5204168;28;20033;-79
2023/03/29 06:39:11;;;;;;;11.38;4.13;;;;;;;8.99;100.00;101441.19;5204033;28;20029;-79
2023/03/29 06:41:42;;;;;;;15.15;4.50;;;;;;;9.00;100.00;101444.72;5204122;28;20032;-78
2023/03/29 06:44:12;;;;;;;10.88;4.57;;;;;;;9.01;100.00;101449.91;5204504;28;20482;-78
2023/03/29 06:46:43;;;;;;;14.27;4.25;;;;;;;9.02;100.00;101450.75;5203510;28;20029;-79
2023/03/29 06:49:13;;;;;;;17.73;5.10;;;;;;;9.03;100.00;101460.47;5204034;28;20022;-79
2023/03/29 06:51:44;;;;;;;13.73;5.55;;;;;;;9.03;100.00;101455.13;5203108;28;20047;-78
2023/03/29 06:54:15;;;;;;;18.55;5.90;;;;;;;9.04;100.00;101462.19;5204154;28;20026;-78
2023/03/29 06:56:46;;;;;;;14.77;5.60;;;;;;;9.03;100.00;101466.66;5203435;28;20486;-79
2023/03/29 06:59:17;;;;;;;12.10;5.65;;;;;;;9.05;100.00;101470.06;5203751;28;20037;-79
2023/03/29 07:01:47;;;;;;;11.23;5.15;;;;;;;9.06;100.00;101470.91;5203408;28;20022;-78
2023/03/29 07:04:18;;;;;;;17.50;4.47;;;;;;;9.08;100.00;101468.91;5203310;28;20390;-78
2023/03/29 07:07:00;;;;;;;15.35;5.20;;;;;;;9.09;100.00;101467.97;5203507;28;20041;-79
2023/03/29 07:09:31;;;;;;;13.27;5.43;;;;;;;9.10;100.00;101479.50;5203448;28;20037;-78
2023/03/29 07:12:01;;;;;;;21.08;5.68;;;;;;;9.15;100.00;101487.97;5201849;28;20032;-79
2023/03/29 07:14:33;;;;;;;14.02;4.60;;;;;;;9.12;100.00;101486.41;5201702;28;20394;-78
2023/03/29 07:17:04;;;;;;;15.32;4.50;;;;;;;9.16;100.00;101477.09;5209694;28;20180;-79
2023/03/29 07:19:35;;;;;;;12.57;4.78;;;;;;;9.21;100.00;101482.88;5210631;28;20453;-79
2023/03/29 07:22:05;;;;;;;13.18;4.28;;;;;;;9.27;100.00;101481.47;5197135;28;20112;-79
2023/03/29 07:24:36;;;;;;;14.48;4.75;;;;;;;9.27;100.00;101473.41;5206933;28;20033;-79
2023/03/29 07:27:07;;;;;;;9.75;4.65;;;;;;;9.27;100.00;101476.94;5203891;28;20044;-79
2023/03/29 07:29:38;;;;;;;13.15;4.53;;;;;;;9.27;100.00;101470.75;5210376;28;20394;-79
2023/03/29 07:32:09;;;;;;;9.40;3.92;;;;;;;9.28;100.00;101477.78;5209886;28;20040;-79
2023/03/29 07:34:40;;;;;;;14.15;4.22;;;;;;;9.33;100.00;101480.88;5210780;28;20029;-79
2023/03/29 07:37:11;;;;;;;19.30;5.43;;;;;;;9.40;100.00;101478.50;5209963;28;20056;-78
2023/03/29 07:39:41;;;;;;;14.23;3.88;;;;;;;9.43;100.00;101480.88;5209636;28;20060;-80
2023/03/29 07:42:12;;;;;;;12.10;4.63;;;;;;;9.42;100.00;101482.72;5209902;28;20025;-78
2023/03/29 07:44:42;;;;;;;11.80;4.68;;;;;;;9.51;100.00;101484.53;5209756;28;20025;-78
2023/03/29 07:47:14;;;;;;;14.52;4.75;;;;;;;9.65;100.00;101493.13;5208900;28;20040;-78
2023/03/29 07:49:45;;;;;;;8.48;3.58;;;;;;;9.72;100.00;101483.50;5224719;28;20021;-78
2023/03/29 07:52:15;;;;;;;10.02;3.75;;;;;;;9.77;100.00;101490.09;5209444;28;20103;-78
2023/03/29 07:54:46;;;;;;;13.10;4.05;;;;;;;9.82;100.00;101487.00;5209786;28;20025;-78
2023/03/29 07:57:16;;;;;;;9.50;4.22;;;;;;;9.88;100.00;101494.44;5209508;28;20071;-79
2023/03/29 07:59:47;;;;;;;11.20;4.05;;;;;;;9.91;100.00;101491.47;5209526;28;20037;-78
2023/03/29 08:02:19;;;;;;;10.60;4.93;;;;;;;9.97;100.00;101492.72;5209865;28;20064;-79
2023/03/29 08:04:52;;;;;;;10.82;4.32;;;;;;;9.99;100.00;101494.28;5209807;28;20049;-79
2023/03/29 08:07:23;;;;;;;14.70;4.72;;;;;;;10.10;100.00;101502.13;5209450;28;20440;-79
2023/03/29 08:09:54;;;;;;;10.65;4.60;;;;;;;10.23;100.00;101499.09;5209171;28;20026;-78
2023/03/29 08:12:24;;;;;;;8.52;3.65;;;;;;;10.40;100.00;101502.03;5205312;28;20052;-79
2023/03/29 08:14:55;;;;;;;8.85;4.63;;;;;;;10.49;100.00;101507.34;5208924;28;20026;-78
2023/03/29 08:17:25;;;;;;;8.50;4.43;;;;;;;10.51;100.00;101500.00;5209064;28;20036;-79
2023/03/29 08:19:56;;;;;;;10.68;4.43;;;;;;;10.57;100.00;101496.69;5209751;28;20053;-78
2023/03/29 08:22:27;;;;;;;12.30;4.20;;;;;;;10.47;100.00;101503.13;5209530;28;20510;-79
2023/03/29 08:24:57;;;;;;;9.20;3.97;;;;;;;10.37;100.00;101500.50;5202834;28;20056;-79
2023/03/29 08:27:28;;;;;;;9.02;3.90;;;;;;;10.29;100.00;101489.66;5202066;28;20052;-79
2023/03/29 08:29:59;;;;;;;14.35;5.38;;;;;;;10.13;100.00;101492.94;5206007;28;20056;-79
2023/03/29 08:32:30;;;;;;;8.93;4.57;;;;;;;10.08;100.00;101501.41;5205703;28;20028;-79
2023/03/29 08:35:03;;;;;;;12.00;4.18;;;;;;;9.88;100.00;101507.84;5206318;28;20108;-78
2023/03/29 08:37:34;;;;;;;12.55;4.60;;;;;;;9.75;100.00;101496.63;5220804;28;20096;-79
2023/03/29 08:40:05;;;;;;;16.48;5.07;;;;;;;9.62;100.00;101485.34;5205274;28;20034;-79
2023/03/29 08:43:03;;;;;;;11.55;5.28;;;;;;;9.63;100.00;101479.00;5205961;28;20018;-79
2023/03/29 08:45:49;;;;;;;13.55;4.35;;;;;;;9.72;100.00;101486.19;5206635;28;20030;-79
2023/03/29 08:48:27;;;;;;;11.85;5.22;;;;;;;9.77;100.00;101486.59;5208842;28;20049;-79
2023/03/29 08:51:03;;;;;;;13.13;5.18;;;;;;;9.85;100.00;101481.34;5209559;28;20029;-79
2023/03/29 08:53:41;;;;;;;14.13;5.45;;;;;;;9.91;100.00;101486.13;5206701;28;20060;-78
2023/03/29 08:56:17;;;;;;;12.80;4.80;;;;;;;9.92;100.00;101481.59;5205514;28;20440;-78
2023/03/29 08:58:50;;;;;;;13.18;4.75;;;;;;;9.93;100.00;101475.25;5204877;28;20014;-78
2023/03/29 09:01:22;;;;;;;14.27;4.57;;;;;;;10.04;100.00;101473.25;5204956;28;20079;-78
2023/03/29 09:04:07;;;;;;;11.60;4.18;;;;;;;10.17;100.00;101472.03;5205283;28;20025;-78
2023/03/29 09:06:39;;;;;;;12.45;4.80;;;;;;;10.22;100.00;101465.25;5204909;28;20025;-78
2023/03/29 09:09:16;;;;;;;12.18;4.03;;;;;;;10.32;100.00;101468.75;5204531;28;20030;-78
2023/03/29 09:12:21;;;;;;;13.45;4.13;;;;;;;10.44;100.00;101464.03;5204806;28;20025;-78
2023/03/29 09:15:29;;;;;;;12.52;4.88;;;;;;;10.61;100.00;101467.75;5192603;28;20497;-78
2023/03/29 09:18:30;;;;;;;7.72;4.22;;;;;;;10.68;100.00;101467.97;5204325;28;20104;-78
2023/03/29 09:21:15;;;;;;;9.35;4.00;;;;;;;10.72;100.00;101474.72;5204361;28;20029;-78
2023/03/29 09:23:54;;;;;;;10.30;4.32;;;;;;;10.80;100.00;101467.59;5204523;28;20030;-81
2023/03/29 09:26:46;;;;;;;8.00;3.40;;;;;;;10.81;100.00;101465.75;5194870;28;20061;-81
2023/03/29 09:29:36;;;;;;;8.13;4.07;;;;;;;10.84;100.00;101469.00;5204793;28;20116;-78
2023/03/29 09:32:18;;;;;;;7.90;3.55;;;;;;;10.89;100.00;101480.13;5203883;28;20052;-78
2023/03/29 09:35:02;;;;;;;10.43;3.70;;;;;;;10.98;100.00;101477.50;5205036;28;20041;-79
2023/03/29 09:37:37;;;;;;;9.43;3.70;;;;;;;11.05;100.00;101473.22;5208125;28;20033;-79
2023/03/29 09:40:26;;;;;;;10.57;3.95;;;;;;;11.05;100.00;101471.38;5208599;28;20365;-79
2023/03/29 09:43:01;;;;;;;10.43;4.18;;;;;;;11.06;100.00;101467.69;5209008;28;20022;-78
2023/03/29 09:45:34;;;;;;;10.52;3.55;;;;;;;11.17;100.00;101469.28;5208661;28;20089;-78
2023/03/29 09:48:12;;;;;;;13.35;4.10;;;;;;;11.27;100.00;101469.19;5207927;28;20056;-78
2023/03/29 09:50:46;;;;;;;10.38;4.00;;;;;;;11.24;100.00;101477.56;5208293;28;20076;-78
2023/03/29 09:53:18;;;;;;;17.85;4.57;;;;;;;11.14;100.00;101475.81;5208414;28;20033;-78
2023/03/29 09:55:49;;;;;;;10.13;4.50;;;;;;;11.12;100.00;101471.59;5208301;28;20110;-78
2023/03/29 09:58:40;;;;;;;12.27;3.88;;;;;;;11.12;100.00;101469.75;5207340;28;20187;-78
2023/03/29 10:01:14;;;;;;;11.30;4.22;;;;;;;11.22;100.00;101466.13;5206651;28;20026;-78
2023/03/29 10:04:00;;;;;;;9.10;4.07;;;;;;;11.31;100.00;101449.09;5206429;28;20044;-77
2023/03/29 10:06:33;;;;;;;9.27;3.60;;;;;;;11.37;100.00;101445.75;5206133;28;20056;-77
2023/03/29 10:09:15;;;;;;;10.73;4.28;;;;;;;11.61;100.00;101440.56;5207064;28;20445;-78
2023/03/29 10:11:50;;;;;;;8.35;3.65;;;;;;;11.90;100.00;101439.41;5203782;28;20025;-78
2023/03/29 10:14:30;;;;;;;;;;;;;;;12.27;100.00;101440.91;5199627;28;20052;-77
2023/03/29 10:17:05;;;;;;;12.07;3.90;;;;;;;12.62;100.00;101435.28;5203890;28;19978;-77
2023/03/29 10:19:36;;;;;;;12.25;4.28;;;;;;;12.96;100.00;101434.31;5203601;28;20053;-78
2023/03/29 10:22:16;;;;;;;8.73;4.05;;;;;;;13.10;100.00;101433.66;5203464;28;20029;-79
2023/03/29 10:24:50;;;;;;;9.88;4.28;;;;;;;13.01;100.00;101425.75;5199053;28;20065;-79
2023/03/29 10:27:24;;;;;;;7.88;4.18;;;;;;;13.17;100.00;101426.56;5199466;28;20025;-78
2023/03/29 10:29:58;;;;;;;6.80;4.00;;;;;;;13.61;100.00;101418.13;5203913;28;20120;-78
2023/03/29 10:32:54;;;;;;;7.03;4.07;;;;;;;13.95;100.00;101417.84;5197823;28;20048;-78
2023/03/29 10:35:45;;;;;;;6.78;3.75;;;;;;;13.99;100.00;101418.34;5190860;28;20017;-79
2023/03/29 10:38:19;;;;;;;11.43;4.25;;;;;;;13.85;100.00;101417.19;5202279;28;20087;-78
2023/03/29 10:40:51;;;;;;;10.93;4.13;;;;;;;13.54;100.00;101416.28;5204253;28;20083;-76
2023/03/29 10:43:28;;;;;;;13.95;4.43;;;;;;;13.65;100.00;101416.75;5201830;28;20385;-87
2023/03/29 10:46:18;;;;;;;10.40;4.43;;;;;;;14.06;100.00;101413.09;5202620;28;20021;-85
2023/03/29 10:48:54;;;;;;;9.07;4.40;;;;;;;14.26;100.00;101406.25;5202893;28;20037;-84
2023/03/29 10:51:29;;;;;;;9.27;3.92;;;;;;;14.21;100.00;101404.09;5200800;28;20047;-83
2023/03/29 10:54:00;;;;;;;7.70;3.50;;;;;;;14.46;100.00;101407.50;5203374;28;20091;-84
2023/03/29 10:56:38;;;;;;;7.32;4.00;;;;;;;14.40;100.00;101410.88;5202308;28;20421;-85
2023/03/29 10:59:27;;;;;;;8.73;4.15;;;;;;;14.87;100.00;101414.50;5203310;28;20017;-86
2023/03/29 11:02:24;;;;;;;7.15;3.45;;;;;;;14.48;100.00;101408.16;5190746;28;20030;-83
2023/03/29 11:04:57;;;;;;;8.18;3.60;;;;;;;14.46;100.00;101412.88;5201890;28;20421;-85
2023/03/29 11:07:31;;;;;;;6.80;3.28;;;;;;;14.62;100.00;101401.16;5202237;28;20038;-85
2023/03/29 11:10:29;;;;;;;7.50;3.30;;;;;;;14.65;100.00;101398.09;5201332;28;20486;-85
2023/03/29 11:13:17;;;;;;;8.18;3.22;;;;;;;14.89;100.00;101401.63;5205988;28;20022;-84
2023/03/29 11:16:04;;;;;;;8.40;3.65;;;;;;;14.97;100.00;101396.19;5207279;28;20033;-81
2023/03/29 11:18:42;;;;;;;9.95;3.88;;;;;;;14.96;100.00;101395.34;5203070;28;20056;-83
2023/03/29 11:21:40;;;;;;;5.75;3.40;;;;;;;15.03;100.00;101385.47;5197670;28;20025;-83
2023/03/29 11:24:46;;;;;;;6.85;3.17;;;;;;;15.26;100.00;101377.34;5199417;28;20037;-87
2023/03/29 11:27:37;;;;;;;9.68;2.53;;;;;;;15.25;100.00;101378.34;5198034;28;20143;-78
2023/03/29 11:30:27;;;;;;;9.32;3.67;;;;;;;15.08;100.00;101381.41;5198650;28;20041;-85
2023/03/29 11:33:23;;;;;;;5.47;2.72;;;;;;;15.04;100.00;101386.31;5195671;28;20027;-84
2023/03/29 11:36:05;;;;;;;7.43;3.37;;;;;;;15.09;100.00;101377.66;5201507;28;20036;-86
2023/03/29 11:38:47;;;;;;;7.75;3.47;;;;;;;15.17;100.00;101374.91;5201196;28;20036;-85
2023/03/29 11:41:24;;;;;;;6.72;3.05;;;;;;;15.47;100.00;101379.31;5201543;28;20355;-81
2023/03/29 11:44:13;;;;;;;5.85;2.60;;;;;;;15.68;100.00;101372.34;5202109;28;20057;-80
2023/03/29 11:46:53;;;;;;;7.32;2.83;;;;;;;15.49;100.00;101387.22;5200597;28;20072;-79
2023/03/29 11:49:31;;;;;;;7.53;2.70;;;;;;;15.75;100.00;101389.50;5201177;28;20053;-77
2023/03/29 11:52:11;;;;;;;7.75;2.53;;;;;;;15.76;100.00;101386.63;5200988;28;20449;-80
2023/03/29 11:54:44;;;;;;;8.27;3.03;;;;;;;15.44;100.00;101387.78;5201497;28;20390;-81
2023/03/29 11:57:36;;;;;;;5.18;2.65;;;;;;;15.49;100.00;101395.34;5200944;28;20029;-81